Sevierville, TN

08:52 AM EST on Genièr 20, 2017 (GMT -0500)
Murphy Rd | | Change Station

Elev 958 ft 35.85 °N, 83.57 °W | Updated 23 seconds ago

Subretot nivolós
Subretot nivolós
53.4 °F
Feels Like 53.4 °F
N
0.0
vent Variadís vent from ENE

Auèi
High -- | Low -- °F
--% Chance of Precip.
Yesterday
High -- | Low -- °F
Precip. -- Dins
Pression 29.78 Dins
Visibilitat 10.0 miles
Nivols Cobèrt 700 ft
Punt de ròs 52 °F
Imor 96%
Rainfall 0.38 Dins
Snow Depth Not available.
7:41 AM 5:49 PM
Last Quarter, 44% visible
METAR KTYS 201253Z 25004KT 10SM OVC007 13/12 A2979 RMK AO2 RAB19E26 SLP084 P0000 T01330122
Pression 29.78 Dins
Visibilitat 10.0 miles
Nivols Cobèrt 700 ft
Punt de ròs 52 °F
Imor 96%
Rainfall 0.38 Dins
Snow Depth Not available.
7:41 AM 5:49 PM
Last Quarter, 44% visible
METAR KTYS 201253Z 25004KT 10SM OVC007 13/12 A2979 RMK AO2 RAB19E26 SLP084 P0000 T01330122

Get Your Daily Forecast Email!

Thanks for signing up!

Be on the lookout for a verification email in your inbox.

You'll start receiving the daily forecast at 8 AM.

×

10-Day Weather Forecast

Almanac

Astronomy

Jan. 20, 2017 Rise Set
Actual Time
Civil Twilight
Nautical Twilight
Astronomical Twilight
Luna
Length Of Visible Light
Length of Day
Tomorrow will be .
, % of the Moon is Illuminated

Today's Extremes

State Highs State Lows

Community

WunderPhotos

Upload Photos

1,962,540 photos uploaded!

WunderBlog® & News

Nearby

Air Quality

  Air Quality AQ Index Pollutant
Not available.

Snow Depth

Station Depth Elevation

Earthquake Activity

Vila Distance Mag. Time & Date
Minimum magnitude displayed is 2.5.

Coastal Water Temperatures

Luòc Temperatura

Stations

Nearby Weather Stations

Station Location Temp Vent freg Punt de ròs Imor vent Precip. Elev Mes al jorn Type
                   

Watches & Warnings

There are currently no watches in effect.